Time;durP1;ratioP1;P1;durP2;ratioP2;P2;SDS_P1;SDS_P2;PMS_P1;PMS_P2;Temp;Humidity;BMP_temperature;BMP_pressure;BME280_temperature;BME280_humidity;BME280_pressure;Samples;Min_cycle;Max_cycle;Signal;HPM_P1;HPM_P2
2022/04/05 00:00:57;;;;;;;5.57;0.68;;;7.20;99.90;;;;;;5054076;28;20029;-50
2022/04/05 00:03:23;;;;;;;4.40;0.60;;;7.20;99.90;;;;;;5039323;28;20561;-50
2022/04/05 00:05:49;;;;;;;2.70;0.40;;;7.20;99.90;;;;;;5053632;28;20059;-50
2022/04/05 00:08:17;;;;;;;1.83;0.60;;;7.20;99.90;;;;;;5054148;28;20040;-47
2022/04/05 00:10:43;;;;;;;3.83;0.60;;;7.20;99.90;;;;;;5049056;28;20442;-50
2022/04/05 00:13:09;;;;;;;1.55;0.40;;;7.20;99.90;;;;;;5057546;28;20554;-50
2022/04/05 00:15:35;;;;;;;4.95;0.80;;;7.20;99.90;;;;;;5054185;28;20103;-49
2022/04/05 00:18:02;;;;;;;2.55;0.45;;;7.20;99.90;;;;;;5051437;28;20059;-48
2022/04/05 00:20:28;;;;;;;2.97;0.65;;;7.10;99.90;;;;;;5051400;28;20093;-50
2022/04/05 00:22:54;;;;;;;3.72;0.80;;;7.10;99.90;;;;;;5046787;28;20041;-51
2022/04/05 00:25:20;;;;;;;3.03;0.63;;;7.10;99.90;;;;;;5044905;28;20119;-47
2022/04/05 00:27:47;;;;;;;4.32;0.60;;;7.10;99.90;;;;;;5048929;28;20049;-48
2022/04/05 00:30:14;;;;;;;4.60;0.60;;;7.10;99.90;;;;;;5044074;28;20041;-50
2022/04/05 00:32:40;;;;;;;3.55;0.80;;;7.10;99.90;;;;;;5051933;28;20508;-50
2022/04/05 00:35:07;;;;;;;1.90;0.60;;;7.10;99.90;;;;;;5036655;28;20037;-43
2022/04/05 00:37:32;;;;;;;4.50;0.80;;;7.10;99.90;;;;;;5054023;28;20041;-50
2022/04/05 00:39:58;;;;;;;5.47;0.47;;;7.10;99.90;;;;;;5047003;28;20489;-48
2022/04/05 00:42:23;;;;;;;5.68;0.57;;;7.10;99.90;;;;;;5044574;28;20417;-50
2022/04/05 00:44:49;;;;;;;5.97;0.55;;;7.10;99.90;;;;;;5046942;28;20110;-50
2022/04/05 00:47:22;;;;;;;3.03;0.88;;;7.10;99.90;;;;;;5048181;28;20033;-50
2022/04/05 00:49:50;;;;;;;3.88;0.73;;;7.10;99.90;;;;;;5047752;28;20036;-51
2022/04/05 00:52:17;;;;;;;4.70;0.77;;;7.00;99.90;;;;;;5050025;28;20173;-50
2022/04/05 00:54:45;;;;;;;2.95;0.60;;;7.00;99.90;;;;;;5050518;28;20477;-49
2022/04/05 00:57:17;;;;;;;2.92;0.60;;;7.00;99.90;;;;;;5052993;28;20045;-48
2022/04/05 00:59:44;;;;;;;3.13;0.50;;;7.00;99.90;;;;;;5053227;28;20149;-50
2022/04/05 01:02:20;;;;;;;4.00;0.90;;;7.00;99.90;;;;;;5060929;28;20528;-52
2022/04/05 01:04:47;;;;;;;5.13;0.73;;;7.00;99.90;;;;;;5043362;28;20529;-50
2022/04/05 01:07:17;;;;;;;2.88;0.50;;;7.00;99.90;;;;;;5049940;28;20073;-50
2022/04/05 01:09:44;;;;;;;4.40;0.63;;;7.00;99.90;;;;;;5046835;28;20045;-50
2022/04/05 01:12:12;;;;;;;5.53;0.60;;;7.00;99.90;;;;;;5054837;28;20041;-47
2022/04/05 01:14:38;;;;;;;4.32;0.63;;;7.00;99.90;;;;;;5043630;28;20037;-49
2022/04/05 01:17:06;;;;;;;3.95;0.70;;;7.00;99.90;;;;;;5047235;28;20041;-47
2022/04/05 01:19:33;;;;;;;2.85;0.60;;;7.00;99.90;;;;;;5045615;28;20556;-49
2022/04/05 01:22:00;;;;;;;4.57;0.75;;;7.00;99.90;;;;;;5048355;28;20081;-48
2022/04/05 01:24:26;;;;;;;3.42;0.68;;;7.00;99.90;;;;;;5051482;28;20096;-48
2022/04/05 01:26:54;;;;;;;5.53;0.70;;;7.00;99.90;;;;;;5046215;28;20580;-44
2022/04/05 01:29:22;;;;;;;5.20;0.75;;;7.00;99.90;;;;;;5046690;28;20037;-48
2022/04/05 01:32:02;;;;;;;7.82;1.00;;;7.00;99.90;;;;;;5047501;28;20029;-49
2022/04/05 01:34:29;;;;;;;2.90;0.68;;;7.00;99.90;;;;;;5052935;28;20036;-45
2022/04/05 01:36:57;;;;;;;3.95;0.75;;;7.00;99.90;;;;;;5047943;28;20044;-51
2022/04/05 01:39:25;;;;;;;4.93;0.80;;;6.90;99.90;;;;;;5046939;28;20813;-44
2022/04/05 01:42:02;;;;;;;4.75;0.80;;;6.90;99.90;;;;;;5052322;28;20072;-51
2022/04/05 01:44:29;;;;;;;2.65;0.60;;;6.90;99.90;;;;;;5043962;28;20135;-46
2022/04/05 01:46:56;;;;;;;4.25;0.60;;;6.90;99.90;;;;;;5053640;28;20036;-50
2022/04/05 01:49:22;;;;;;;6.65;0.80;;;6.90;99.90;;;;;;5050044;28;20047;-49
2022/04/05 01:51:48;;;;;;;5.47;0.70;;;6.90;99.90;;;;;;5055719;28;20378;-50
2022/04/05 01:54:15;;;;;;;5.78;0.50;;;6.90;99.90;;;;;;5058402;28;20481;-46
2022/04/05 01:56:45;;;;;;;5.40;1.05;;;6.90;99.90;;;;;;5050831;28;20581;-47
2022/04/05 01:59:14;;;;;;;5.35;0.65;;;6.90;99.90;;;;;;5048702;28;20056;-49
2022/04/05 02:01:40;;;;;;;2.45;0.50;;;6.90;99.90;;;;;;5054185;28;20052;-48
2022/04/05 02:04:08;;;;;;;2.60;0.60;;;6.90;99.90;;;;;;5053564;28;20052;-50
2022/04/05 02:06:34;;;;;;;3.97;0.55;;;6.90;99.90;;;;;;5046700;28;20053;-49
2022/04/05 02:08:59;;;;;;;3.92;0.73;;;6.90;99.90;;;;;;5056028;28;20052;-46
2022/04/05 02:11:25;;;;;;;3.55;0.52;;;6.90;99.90;;;;;;5047157;28;20029;-50
2022/04/05 02:13:51;;;;;;;6.50;0.75;;;6.80;99.90;;;;;;5053192;28;20477;-49
2022/04/05 02:16:16;;;;;;;3.85;0.73;;;6.80;99.90;;;;;;5052266;28;20097;-46
2022/04/05 02:18:42;;;;;;;1.35;0.32;;;6.80;99.90;;;;;;5056797;28;20473;-48
2022/04/05 02:21:08;;;;;;;3.50;0.63;;;6.80;99.90;;;;;;5058009;28;20104;-50
2022/04/05 02:23:33;;;;;;;3.95;0.70;;;6.80;99.90;;;;;;5047539;28;20477;-46
2022/04/05 02:25:59;;;;;;;1.65;0.40;;;6.80;99.90;;;;;;5044453;28;20038;-48
2022/04/05 02:28:25;;;;;;;1.92;0.40;;;6.80;99.90;;;;;;5044390;28;20044;-48
2022/04/05 02:30:51;;;;;;;2.42;0.32;;;6.80;99.90;;;;;;5046470;28;20137;-48
2022/04/05 02:33:17;;;;;;;3.30;0.50;;;6.80;99.90;;;;;;5048418;28;20263;-49
2022/04/05 02:35:43;;;;;;;4.22;0.60;;;6.80;99.90;;;;;;5054813;28;20040;-48
2022/04/05 02:38:09;;;;;;;2.40;0.50;;;6.80;99.90;;;;;;5048815;28;20099;-50
2022/04/05 02:40:35;;;;;;;3.10;0.55;;;6.80;99.90;;;;;;5047494;28;20041;-49
2022/04/05 02:43:02;;;;;;;4.80;0.60;;;6.80;99.90;;;;;;5040022;28;20529;-50
2022/04/05 02:45:27;;;;;;;3.40;0.65;;;6.80;99.90;;;;;;5051368;28;20047;-49
2022/04/05 02:47:53;;;;;;;5.55;0.70;;;6.80;99.90;;;;;;5039194;28;20081;-49
2022/04/05 02:50:18;;;;;;;4.70;0.70;;;6.80;99.90;;;;;;5044968;28;20021;-46
2022/04/05 02:52:48;;;;;;;5.22;0.80;;;6.80;99.90;;;;;;5052674;28;20025;-49
2022/04/05 02:55:14;;;;;;;4.20;0.70;;;6.80;99.90;;;;;;5056042;28;20043;-47
2022/04/05 02:57:41;;;;;;;2.28;0.90;;;6.80;99.90;;;;;;5050794;28;20040;-49
2022/04/05 03:00:08;;;;;;;5.72;1.25;;;6.80;99.90;;;;;;5049794;28;20041;-47
2022/04/05 03:02:34;;;;;;;3.47;0.80;;;6.80;99.90;;;;;;5043554;28;20036;-52
2022/04/05 03:05:07;;;;;;;4.53;0.95;;;6.80;99.90;;;;;;5049778;28;20090;-50
2022/04/05 03:07:34;;;;;;;3.55;1.10;;;6.80;99.90;;;;;;5044963;28;20509;-43
2022/04/05 03:10:06;;;;;;;6.03;0.95;;;6.80;99.90;;;;;;5041462;28;20523;-49
2022/04/05 03:12:32;;;;;;;6.43;1.13;;;6.80;99.90;;;;;;5040857;28;20032;-53
2022/04/05 03:14:58;;;;;;;6.80;1.30;;;6.80;99.90;;;;;;5042055;28;20033;-48
2022/04/05 03:17:23;;;;;;;4.18;1.10;;;6.80;99.90;;;;;;5044078;28;20431;-51
2022/04/05 03:19:49;;;;;;;5.50;1.45;;;6.80;99.90;;;;;;5053990;28;20557;-42
2022/04/05 03:22:16;;;;;;;5.30;1.25;;;6.90;99.90;;;;;;5049888;28;20048;-50
2022/04/05 03:24:43;;;;;;;5.85;1.58;;;6.80;99.90;;;;;;5048139;28;20128;-54
2022/04/05 03:27:08;;;;;;;4.32;1.30;;;6.90;99.90;;;;;;5070150;28;20048;-45
2022/04/05 03:29:34;;;;;;;5.53;1.50;;;6.90;99.90;;;;;;5048227;28;20422;-51
2022/04/05 03:32:01;;;;;;;8.07;1.70;;;6.90;99.90;;;;;;5046477;28;20081;-48
2022/04/05 03:34:27;;;;;;;6.57;1.35;;;6.90;99.90;;;;;;5048565;28;20106;-45
2022/04/05 03:36:53;;;;;;;5.35;1.50;;;6.90;99.90;;;;;;5052597;28;20040;-55
2022/04/05 03:39:19;;;;;;;5.07;1.80;;;6.90;99.90;;;;;;5043530;28;20033;-49
2022/04/05 03:41:45;;;;;;;5.05;1.55;;;6.90;99.90;;;;;;5051794;28;20045;-50
2022/04/05 03:44:10;;;;;;;4.57;1.60;;;6.90;99.90;;;;;;5049810;28;20037;-38
2022/04/05 03:46:36;;;;;;;6.03;2.03;;;6.90;99.90;;;;;;5045217;28;20029;-49
2022/04/05 03:49:03;;;;;;;4.85;1.55;;;7.00;99.90;;;;;;5046408;28;20039;-48
2022/04/05 03:51:29;;;;;;;5.75;1.60;;;7.00;99.90;;;;;;5047878;28;20037;-50
2022/04/05 03:53:55;;;;;;;6.07;1.17;;;7.00;99.90;;;;;;5056715;28;20045;-46
2022/04/05 03:56:22;;;;;;;6.93;1.52;;;7.00;99.90;;;;;;5057203;28;20055;-50
2022/04/05 03:58:48;;;;;;;5.35;1.48;;;7.00;99.90;;;;;;5051215;28;20106;-45
2022/04/05 04:01:13;;;;;;;6.15;2.17;;;7.00;99.90;;;;;;5047227;28;20052;-49
2022/04/05 04:03:39;;;;;;;4.10;1.40;;;7.00;99.90;;;;;;5052302;28;20051;-50
2022/04/05 04:06:04;;;;;;;3.75;1.58;;;6.90;99.90;;;;;;5053130;28;20037;-42
2022/04/05 04:08:30;;;;;;;6.55;1.70;;;7.00;99.90;;;;;;5037051;28;20101;-50
2022/04/05 04:10:56;;;;;;;7.60;1.33;;;6.90;99.90;;;;;;5047641;28;20397;-51
2022/04/05 04:13:22;;;;;;;3.75;1.20;;;6.90;99.90;;;;;;5035980;28;20648;-48
2022/04/05 04:15:47;;;;;;;5.72;1.33;;;6.90;99.90;;;;;;5040812;28;20110;-48
2022/04/05 04:18:13;;;;;;;5.72;1.50;;;6.90;99.90;;;;;;5060423;28;20116;-48
2022/04/05 04:20:39;;;;;;;4.68;1.35;;;6.90;99.90;;;;;;5045188;28;20044;-51
2022/04/05 04:23:05;;;;;;;2.88;1.35;;;6.90;99.90;;;;;;5049738;28;20097;-49
2022/04/05 04:25:31;;;;;;;4.53;1.95;;;6.90;99.90;;;;;;5048790;28;20498;-48
2022/04/05 04:27:57;;;;;;;5.78;1.70;;;6.90;99.90;;;;;;5061136;28;20047;-50
2022/04/05 04:30:23;;;;;;;7.10;2.20;;;6.90;99.90;;;;;;5048758;28;20533;-49
2022/04/05 04:32:49;;;;;;;5.45;2.30;;;6.90;99.90;;;;;;5048024;28;20063;-51
2022/04/05 04:35:15;;;;;;;6.22;1.92;;;6.90;99.90;;;;;;5040092;28;20143;-43
2022/04/05 04:37:41;;;;;;;5.63;2.15;;;6.90;99.90;;;;;;5047954;28;20028;-46
2022/04/05 04:40:07;;;;;;;5.72;1.98;;;6.90;99.90;;;;;;5044721;28;20449;-49
2022/04/05 04:42:33;;;;;;;6.30;2.20;;;6.90;99.90;;;;;;5047184;28;20219;-47
2022/04/05 04:45:00;;;;;;;8.85;2.10;;;6.90;99.90;;;;;;5047306;28;20049;-48
2022/04/05 04:47:25;;;;;;;7.22;1.95;;;6.90;99.90;;;;;;5043798;28;20076;-47
2022/04/05 04:49:51;;;;;;;5.22;1.52;;;6.90;99.90;;;;;;5053469;28;20489;-50
2022/04/05 04:52:17;;;;;;;9.35;1.58;;;6.90;99.90;;;;;;5049125;28;20036;-50
2022/04/05 04:54:42;;;;;;;6.65;1.80;;;6.90;99.90;;;;;;5043922;28;20123;-50
2022/04/05 04:57:08;;;;;;;6.75;1.65;;;6.90;99.90;;;;;;5044801;28;20072;-47
2022/04/05 04:59:33;;;;;;;4.22;1.40;;;6.90;99.90;;;;;;5049189;28;20133;-49
2022/04/05 05:01:59;;;;;;;7.55;1.70;;;6.90;99.90;;;;;;5053815;28;20111;-53
2022/04/05 05:04:25;;;;;;;8.15;1.83;;;6.90;99.90;;;;;;5048744;28;20045;-51
2022/04/05 05:06:51;;;;;;;7.60;2.03;;;6.90;99.90;;;;;;5044738;28;20447;-44
2022/04/05 05:09:17;;;;;;;3.05;1.15;;;6.90;99.90;;;;;;5056542;28;20086;-50
2022/04/05 05:11:44;;;;;;;8.48;1.50;;;6.90;99.90;;;;;;5056164;28;20146;-48
2022/04/05 05:14:10;;;;;;;2.95;0.98;;;6.80;99.90;;;;;;5038269;28;20167;-55
2022/04/05 05:16:36;;;;;;;4.97;0.90;;;6.80;99.90;;;;;;5048696;28;20480;-49
2022/04/05 05:19:02;;;;;;;3.97;1.17;;;6.80;99.90;;;;;;5045270;28;20044;-48
2022/04/05 05:21:28;;;;;;;3.97;0.70;;;6.80;99.90;;;;;;5041953;28;20037;-46
2022/04/05 05:23:53;;;;;;;3.97;0.80;;;6.80;99.90;;;;;;5042033;28;20041;-46
2022/04/05 05:26:19;;;;;;;3.75;0.45;;;6.80;99.90;;;;;;5044486;28;20378;-48
2022/04/05 05:28:45;;;;;;;2.47;0.60;;;6.80;99.90;;;;;;5037799;28;20071;-50
2022/04/05 05:31:10;;;;;;;1.42;0.38;;;6.80;99.90;;;;;;5050343;28;20419;-50
2022/04/05 05:33:36;;;;;;;2.90;0.50;;;6.70;99.90;;;;;;5053816;28;20038;-48
2022/04/05 05:36:02;;;;;;;8.43;0.80;;;6.70;99.90;;;;;;5044927;28;20040;-50
2022/04/05 05:38:27;;;;;;;2.33;0.45;;;6.70;99.90;;;;;;5046618;28;20498;-50
2022/04/05 05:40:53;;;;;;;4.50;0.75;;;6.70;99.90;;;;;;5050271;28;20049;-48
2022/04/05 05:43:20;;;;;;;3.53;0.50;;;6.70;99.90;;;;;;5049112;28;20045;-49
2022/04/05 05:45:46;;;;;;;2.47;0.60;;;6.70;99.90;;;;;;5043738;28;20041;-49
2022/04/05 05:48:12;;;;;;;1.73;0.40;;;6.70;99.90;;;;;;5048561;28;20347;-46
2022/04/05 05:50:37;;;;;;;4.00;0.50;;;6.70;99.90;;;;;;5037383;28;20081;-50
2022/04/05 05:53:03;;;;;;;3.22;0.30;;;6.70;99.90;;;;;;5049298;28;20489;-50
2022/04/05 05:55:29;;;;;;;3.50;0.45;;;6.70;99.90;;;;;;5050429;28;20465;-47
2022/04/05 05:57:55;;;;;;;2.92;0.40;;;6.70;99.90;;;;;;5045737;28;20084;-50
2022/04/05 06:00:21;;;;;;;3.00;0.50;;;6.70;99.90;;;;;;5045522;28;20123;-49
2022/04/05 06:02:56;;;;;;;2.63;0.40;;;6.70;99.90;;;;;;5048382;28;20183;-50
2022/04/05 06:05:23;;;;;;;2.45;0.40;;;6.70;99.90;;;;;;5056883;28;20048;-44
2022/04/05 06:07:48;;;;;;;1.40;0.30;;;6.70;99.90;;;;;;5048303;28;20051;-49
2022/04/05 06:10:16;;;;;;;2.80;0.43;;;6.70;99.90;;;;;;5040740;28;20033;-50
2022/04/05 06:12:45;;;;;;;4.25;0.30;;;6.70;99.90;;;;;;5044201;28;20180;-42
2022/04/05 06:15:13;;;;;;;1.95;0.40;;;6.70;99.90;;;;;;5042044;28;20115;-50
2022/04/05 06:17:41;;;;;;;1.83;0.40;;;6.70;99.90;;;;;;5048356;28;20044;-46
2022/04/05 06:20:07;;;;;;;1.90;0.30;;;6.80;99.90;;;;;;5052470;28;20040;-45
2022/04/05 06:22:54;;;;;;;2.08;0.40;;;6.80;99.90;;;;;;5042070;28;20455;-50
2022/04/05 06:25:27;;;;;;;2.40;0.30;;;6.90;99.90;;;;;;5035247;28;20037;-49
2022/04/05 06:27:53;;;;;;;2.08;0.30;;;6.90;99.90;;;;;;5045143;28;20040;-46
2022/04/05 06:30:19;;;;;;;4.38;0.30;;;6.90;99.90;;;;;;5041475;28;20190;-49
2022/04/05 06:32:45;;;;;;;2.90;0.60;;;6.90;99.90;;;;;;5045392;28;20140;-48
2022/04/05 06:35:12;;;;;;;3.17;0.40;;;7.00;99.90;;;;;;5047924;28;20087;-49
2022/04/05 06:37:38;;;;;;;2.15;0.40;;;7.00;99.90;;;;;;5051375;28;20041;-49
2022/04/05 06:40:06;;;;;;;1.30;0.32;;;7.00;99.90;;;;;;5046068;28;20079;-46
2022/04/05 06:42:33;;;;;;;1.45;0.20;;;7.10;99.90;;;;;;5047731;28;20049;-50
2022/04/05 06:44:58;;;;;;;3.28;0.50;;;7.10;99.90;;;;;;5047371;28;20041;-45
2022/04/05 06:47:24;;;;;;;2.78;0.40;;;7.10;99.90;;;;;;5048976;28;20044;-45
2022/04/05 06:49:50;;;;;;;2.88;0.30;;;7.10;99.90;;;;;;5046942;28;20032;-50
2022/04/05 06:52:16;;;;;;;1.00;0.30;;;7.10;99.90;;;;;;5046911;28;20112;-50
2022/04/05 06:54:42;;;;;;;1.17;0.30;;;7.10;99.90;;;;;;5044604;28;20117;-47
2022/04/05 06:57:09;;;;;;;0.50;0.20;;;7.00;99.90;;;;;;5047271;28;20492;-49
2022/04/05 06:59:35;;;;;;;0.80;0.20;;;7.10;99.90;;;;;;5045794;28;20057;-49
2022/04/05 07:02:01;;;;;;;2.80;0.20;;;7.10;99.90;;;;;;5050745;28;20045;-45
2022/04/05 07:04:26;;;;;;;3.13;0.63;;;7.10;99.90;;;;;;5051920;28;20072;-47
2022/04/05 07:06:52;;;;;;;0.93;0.30;;;7.20;99.90;;;;;;5052613;28;20051;-49
2022/04/05 07:09:18;;;;;;;1.13;0.30;;;7.20;99.90;;;;;;5051985;28;20045;-45
2022/04/05 07:11:43;;;;;;;1.30;0.22;;;7.20;99.90;;;;;;5037749;28;20075;-50
2022/04/05 07:14:09;;;;;;;1.33;0.40;;;7.10;99.90;;;;;;5052096;28;20484;-50
2022/04/05 07:16:35;;;;;;;1.33;0.30;;;7.10;99.90;;;;;;5047673;28;20037;-47
2022/04/05 07:19:00;;;;;;;0.85;0.30;;;7.20;99.90;;;;;;5044262;28;20323;-43
2022/04/05 07:21:26;;;;;;;1.83;0.20;;;7.20;99.90;;;;;;5058683;28;20037;-51
2022/04/05 07:23:52;;;;;;;3.50;0.20;;;7.20;99.90;;;;;;5051823;28;20083;-49
2022/04/05 07:26:21;;;;;;;1.63;0.20;;;7.10;99.90;;;;;;5039680;28;20044;-50
2022/04/05 07:28:48;;;;;;;1.08;0.22;;;7.10;99.90;;;;;;5041953;28;20056;-47
2022/04/05 07:31:14;;;;;;;5.18;0.40;;;7.10;99.90;;;;;;5050660;28;20083;-47
2022/04/05 07:33:40;;;;;;;3.03;0.25;;;7.10;99.90;;;;;;5048042;28;20047;-45
2022/04/05 07:36:05;;;;;;;1.80;0.20;;;7.10;99.90;;;;;;5055768;28;20071;-47
2022/04/05 07:38:31;;;;;;;3.28;0.30;;;7.10;99.90;;;;;;5049739;28;20068;-50
2022/04/05 07:40:57;;;;;;;2.00;0.30;;;7.10;99.90;;;;;;5055512;28;20037;-48
2022/04/05 07:43:25;;;;;;;1.35;0.30;;;7.20;99.90;;;;;;5031227;28;20088;-47
2022/04/05 07:45:52;;;;;;;0.50;0.20;;;7.20;99.90;;;;;;5041274;28;20421;-50
2022/04/05 07:48:19;;;;;;;2.72;0.50;;;7.20;99.90;;;;;;5047444;28;20037;-50
2022/04/05 07:50:46;;;;;;;1.77;0.35;;;7.30;99.90;;;;;;5040995;28;20106;-47
2022/04/05 07:53:11;;;;;;;1.33;0.30;;;7.30;99.90;;;;;;5053370;28;20103;-50
2022/04/05 07:55:37;;;;;;;1.05;0.25;;;7.30;99.90;;;;;;5061606;28;20409;-51
2022/04/05 07:58:03;;;;;;;0.55;0.22;;;7.40;99.90;;;;;;5068678;28;20036;-50
2022/04/05 08:00:29;;;;;;;1.85;0.45;;;7.40;99.90;;;;;;5049391;28;20044;-47
2022/04/05 08:02:55;;;;;;;2.28;0.57;;;7.50;99.90;;;;;;5038986;28;20561;-48
2022/04/05 08:05:23;;;;;;;2.75;0.82;;;7.50;99.90;;;;;;5043218;28;20123;-47
2022/04/05 08:07:50;;;;;;;2.53;0.60;;;7.50;99.90;;;;;;5034899;28;20045;-49
2022/04/05 08:10:16;;;;;;;3.38;0.88;;;7.60;99.90;;;;;;5044855;28;20033;-50
2022/04/05 08:12:44;;;;;;;2.63;1.30;;;7.60;99.90;;;;;;5053041;28;20073;-50
2022/04/05 08:15:15;;;;;;;2.85;0.88;;;7.60;99.90;;;;;;5037211;28;20037;-48
2022/04/05 08:17:41;;;;;;;3.15;1.08;;;7.60;99.90;;;;;;5045574;28;20048;-46
2022/04/05 08:20:08;;;;;;;1.25;0.60;;;7.60;99.90;;;;;;5056767;28;20090;-47
2022/04/05 08:22:34;;;;;;;3.38;1.23;;;7.60;99.90;;;;;;5041160;28;20502;-50
2022/04/05 08:24:59;;;;;;;2.95;0.90;;;7.70;99.90;;;;;;5038071;28;20060;-47
2022/04/05 08:27:25;;;;;;;3.03;1.25;;;7.70;99.90;;;;;;5050912;28;20048;-46
2022/04/05 08:29:51;;;;;;;3.10;0.80;;;7.80;99.90;;;;;;5047155;28;20182;-48
2022/04/05 08:32:16;;;;;;;2.47;0.70;;;7.90;99.90;;;;;;5053816;28;20091;-48
2022/04/05 08:34:45;;;;;;;3.20;0.65;;;7.90;99.90;;;;;;5041647;28;20049;-49
2022/04/05 08:37:12;;;;;;;2.17;1.00;;;7.90;99.90;;;;;;5047309;28;20047;-48
2022/04/05 08:39:38;;;;;;;4.13;1.10;;;7.90;99.90;;;;;;5049928;28;20140;-51
2022/04/05 08:42:05;;;;;;;3.55;1.17;;;8.00;99.90;;;;;;5041408;28;20041;-49
2022/04/05 08:44:31;;;;;;;2.92;0.90;;;8.00;99.90;;;;;;5044580;28;20515;-45
2022/04/05 08:47:01;;;;;;;2.20;0.98;;;8.10;99.90;;;;;;5043482;28;20033;-50
2022/04/05 08:49:28;;;;;;;2.53;1.10;;;8.10;99.90;;;;;;5047107;28;20058;-50
2022/04/05 08:51:54;;;;;;;1.98;0.75;;;8.20;99.90;;;;;;5041260;28;20032;-45
2022/04/05 08:54:20;;;;;;;4.25;1.60;;;8.20;99.90;;;;;;5050504;28;20048;-43
2022/04/05 08:56:47;;;;;;;4.35;1.63;;;8.30;99.90;;;;;;5046410;28;20028;-47
2022/04/05 08:59:13;;;;;;;3.83;1.63;;;8.20;99.90;;;;;;5050551;28;20045;-47
2022/04/05 09:01:40;;;;;;;5.57;2.47;;;8.30;99.90;;;;;;5046825;28;20091;-47
2022/04/05 09:04:06;;;;;;;5.65;2.28;;;8.30;99.90;;;;;;5045699;28;20067;-45
2022/04/05 09:06:35;;;;;;;6.75;2.38;;;8.40;99.90;;;;;;5052678;28;20061;-48
2022/04/05 09:09:18;;;;;;;5.10;2.40;;;8.40;99.90;;;;;;5051609;28;20045;-45
2022/04/05 09:11:44;;;;;;;4.72;2.15;;;8.40;99.90;;;;;;5047649;28;20044;-47
2022/04/05 09:14:10;;;;;;;7.95;3.47;;;8.40;99.90;;;;;;5059700;28;20349;-49
2022/04/05 09:16:36;;;;;;;8.73;3.60;;;8.40;99.90;;;;;;5049649;28;20036;-43
2022/04/05 09:19:14;;;;;;;6.53;3.35;;;8.50;99.90;;;;;;5056766;28;20059;-46
2022/04/05 09:21:57;;;;;;;6.45;3.65;;;8.50;99.90;;;;;;5045959;28;20055;-48
2022/04/05 09:24:38;;;;;;;7.80;3.60;;;8.50;99.90;;;;;;5049108;28;20052;-50
2022/04/05 09:27:05;;;;;;;8.18;3.95;;;8.60;99.90;;;;;;5038896;28;20038;-48
2022/04/05 09:29:44;;;;;;;9.32;4.07;;;8.60;99.90;;;;;;5047383;28;20520;-49
2022/04/05 09:32:30;;;;;;;9.48;4.40;;;8.60;99.90;;;;;;5042027;28;20079;-48
2022/04/05 09:34:56;;;;;;;9.85;4.75;;;8.60;99.90;;;;;;5052087;28;20070;-46
2022/04/05 09:37:26;;;;;;;9.38;4.53;;;8.70;99.90;;;;;;5060026;28;20084;-47
2022/04/05 09:39:52;;;;;;;11.38;5.22;;;8.80;99.90;;;;;;5046361;28;20164;-43
2022/04/05 09:42:18;;;;;;;11.25;4.82;;;9.00;99.90;;;;;;5049033;28;20048;-46
2022/04/05 09:44:43;;;;;;;9.02;5.00;;;9.20;99.90;;;;;;5051052;28;20040;-49
2022/04/05 09:47:18;;;;;;;8.98;4.30;;;9.40;99.90;;;;;;5035582;28;20044;-51
2022/04/05 09:49:46;;;;;;;6.20;3.38;;;9.60;99.90;;;;;;5044043;28;20037;-52
2022/04/05 09:52:30;;;;;;;6.15;3.53;;;9.70;99.90;;;;;;5041861;28;20872;-47
2022/04/05 09:55:15;;;;;;;4.68;2.80;;;10.00;99.90;;;;;;5043839;28;20037;-50
2022/04/05 09:57:43;;;;;;;5.82;3.08;;;10.10;99.90;;;;;;5050753;28;20041;-49
2022/04/05 10:00:12;;;;;;;5.50;3.20;;;10.20;99.90;;;;;;5056778;28;20059;-52
2022/04/05 10:03:01;;;;;;;5.57;2.80;;;10.20;99.90;;;;;;5048488;28;20108;-48
2022/04/05 10:05:29;;;;;;;5.38;2.78;;;10.20;99.90;;;;;;5028286;28;20061;-51
2022/04/05 10:07:56;;;;;;;6.18;2.88;;;10.10;99.90;;;;;;5045387;28;20135;-49
2022/04/05 10:10:23;;;;;;;5.28;2.88;;;10.10;99.90;;;;;;5059639;28;20028;-50
2022/04/05 10:12:50;;;;;;;5.00;2.83;;;10.10;99.90;;;;;;5052039;28;20079;-51
2022/04/05 10:15:16;;;;;;;6.18;3.08;;;10.20;99.90;;;;;;5054127;28;20200;-49
2022/04/05 10:17:45;;;;;;;6.78;2.92;;;10.30;99.90;;;;;;5049876;28;20124;-46
2022/04/05 10:20:12;;;;;;;6.88;2.92;;;10.30;99.90;;;;;;5050237;28;20045;-50
2022/04/05 10:22:42;;;;;;;4.78;2.65;;;10.30;99.90;;;;;;5051668;28;20044;-45
2022/04/05 10:25:08;;;;;;;6.32;3.17;;;10.30;99.90;;;;;;5044892;28;20045;-49
2022/04/05 10:27:34;;;;;;;6.32;3.00;;;10.20;99.90;;;;;;5052982;28;20448;-48
2022/04/05 10:30:00;;;;;;;5.35;2.85;;;10.20;99.90;;;;;;5037291;28;20123;-51
2022/04/05 10:32:37;;;;;;;6.63;2.83;;;10.10;99.90;;;;;;5054066;28;20044;-50
2022/04/05 10:35:06;;;;;;;7.30;2.95;;;10.00;99.90;;;;;;5064178;28;20040;-48
2022/04/05 10:37:37;;;;;;;7.60;3.03;;;10.00;99.90;;;;;;5048865;28;20041;-51
2022/04/05 10:40:03;;;;;;;6.63;3.53;;;10.00;99.90;;;;;;5034434;28;20045;-51
2022/04/05 10:42:55;;;;;;;8.40;3.63;;;10.00;99.90;;;;;;5056785;28;20037;-50
2022/04/05 10:45:23;;;;;;;9.07;3.67;;;10.10;99.90;;;;;;5043584;28;20359;-45
2022/04/05 10:48:16;;;;;;;8.45;3.40;;;10.10;99.90;;;;;;5048266;28;20033;-46
2022/04/05 10:50:45;;;;;;;9.15;3.50;;;10.10;99.90;;;;;;5059051;28;20497;-43
2022/04/05 10:53:17;;;;;;;7.18;3.10;;;10.00;99.90;;;;;;5055895;28;20066;-51
2022/04/05 10:56:06;;;;;;;10.85;3.97;;;10.00;99.90;;;;;;5046915;28;20048;-49
2022/04/05 10:58:39;;;;;;;8.77;3.35;;;10.00;99.90;;;;;;5043022;28;20057;-50
2022/04/05 11:01:15;;;;;;;;;;;9.90;99.90;;;;;;5049362;28;20427;-50
2022/04/05 11:03:40;;;;;;;11.57;4.22;;;10.00;99.90;;;;;;5059624;28;19917;-46
2022/04/05 11:06:06;;;;;;;10.32;3.67;;;10.00;99.90;;;;;;5050762;28;20355;-46
2022/04/05 11:08:33;;;;;;;11.65;4.40;;;10.00;99.90;;;;;;5052918;28;20045;-51
2022/04/05 11:11:05;;;;;;;9.15;3.97;;;10.00;99.90;;;;;;5049267;28;20029;-50
2022/04/05 11:13:44;;;;;;;10.63;4.17;;;10.10;99.90;;;;;;5058029;28;20028;-49
2022/04/05 11:16:12;;;;;;;12.23;4.22;;;10.10;99.90;;;;;;5043040;28;20102;-50
2022/04/05 11:18:40;;;;;;;12.32;4.55;;;10.10;99.90;;;;;;5049292;28;20350;-50
2022/04/05 11:21:08;;;;;;;12.95;4.15;;;10.10;99.90;;;;;;5052959;28;20048;-49
2022/04/05 11:23:51;;;;;;;12.32;4.32;;;10.10;99.90;;;;;;5066108;28;20087;-51
2022/04/05 11:26:28;;;;;;;12.68;4.07;;;10.10;99.90;;;;;;5050506;28;20040;-50
2022/04/05 11:28:56;;;;;;;10.25;3.70;;;10.20;99.90;;;;;;5040939;28;20048;-43
2022/04/05 11:31:37;;;;;;;11.27;3.95;;;10.40;99.90;;;;;;5046300;28;20041;-50
2022/04/05 11:34:37;;;;;;;6.97;3.33;;;10.50;99.90;;;;;;5054584;28;20206;-42
2022/04/05 11:37:04;;;;;;;10.65;4.15;;;10.50;99.90;;;;;;5052076;28;20094;-51
2022/04/05 11:39:34;;;;;;;11.18;4.05;;;10.50;99.90;;;;;;5046523;28;20053;-51
2022/04/05 11:42:00;;;;;;;11.88;3.70;;;10.50;99.90;;;;;;5044293;28;20124;-51
2022/04/05 11:44:26;;;;;;;10.70;4.10;;;10.50;99.90;;;;;;5038206;28;20037;-47
2022/04/05 11:46:58;;;;;;;10.38;3.65;;;10.50;99.90;;;;;;5049079;28;20037;-50
2022/04/05 11:49:23;;;;;;;10.75;3.83;;;10.40;99.90;;;;;;5053900;28;20421;-50
2022/04/05 11:51:50;;;;;;;8.27;3.95;;;10.40;99.90;;;;;;5065435;28;20121;-51
2022/04/05 11:54:21;;;;;;;13.27;3.88;;;10.40;99.90;;;;;;5036569;28;20091;-49
2022/04/05 11:56:47;;;;;;;10.88;3.80;;;10.40;99.90;;;;;;5045655;28;20456;-49
2022/04/05 11:59:17;;;;;;;8.20;3.60;;;10.40;99.90;;;;;;5047759;28;20091;-50
2022/04/05 12:01:47;;;;;;;8.50;4.05;;;10.50;99.90;;;;;;5045839;28;20098;-50
2022/04/05 12:04:14;;;;;;;14.50;4.63;;;10.60;99.90;;;;;;5041657;28;20685;-50
2022/04/05 12:06:45;;;;;;;9.00;4.10;;;10.60;99.90;;;;;;5045886;28;22012;-50
2022/04/05 12:09:13;;;;;;;10.05;4.25;;;10.50;99.90;;;;;;5047271;28;20413;-51
2022/04/05 12:11:41;;;;;;;13.93;4.55;;;10.50;99.90;;;;;;5056121;28;20444;-50
2022/04/05 12:14:11;;;;;;;13.30;4.55;;;10.60;99.90;;;;;;5048834;28;20086;-49
2022/04/05 12:16:50;;;;;;;10.68;4.70;;;10.60;99.90;;;;;;5049696;28;20485;-48
2022/04/05 12:19:24;;;;;;;11.98;4.18;;;10.50;99.90;;;;;;5039812;28;20037;-50
2022/04/05 12:21:54;;;;;;;11.77;4.65;;;10.50;99.90;;;;;;5052113;28;20042;-53
2022/04/05 12:24:20;;;;;;;12.38;4.30;;;10.50;99.90;;;;;;5045480;28;20489;-50
2022/04/05 12:26:45;;;;;;;10.90;4.60;;;10.50;99.90;;;;;;5048665;28;20047;-50
2022/04/05 12:29:11;;;;;;;10.77;4.10;;;10.50;99.90;;;;;;5039619;28;20707;-51
2022/04/05 12:31:37;;;;;;;10.68;4.35;;;10.50;99.90;;;;;;5069335;28;20036;-50
2022/04/05 12:34:10;;;;;;;10.98;3.72;;;10.50;99.90;;;;;;5057530;28;20046;-52
2022/04/05 12:36:41;;;;;;;8.88;3.50;;;10.50;99.90;;;;;;5037959;28;20087;-50
2022/04/05 12:39:17;;;;;;;8.45;4.10;;;10.60;99.90;;;;;;5042630;28;20110;-53
2022/04/05 12:41:44;;;;;;;13.98;4.05;;;10.60;99.90;;;;;;5046155;28;20444;-53
2022/04/05 12:44:15;;;;;;;8.10;4.15;;;10.60;99.90;;;;;;5041058;28;20490;-51
2022/04/05 12:46:46;;;;;;;8.70;4.70;;;10.60;99.90;;;;;;5049701;28;20497;-46
2022/04/05 12:49:34;;;;;;;12.45;4.25;;;10.60;99.90;;;;;;5045441;28;20045;-48
2022/04/05 12:52:18;;;;;;;13.60;4.03;;;10.60;99.90;;;;;;5055129;28;20095;-49
2022/04/05 12:54:46;;;;;;;7.55;3.90;;;10.50;99.90;;;;;;5050695;28;20528;-37
2022/04/05 12:57:36;;;;;;;10.50;4.28;;;10.50;99.90;;;;;;5047567;28;20717;-37